Webcam Flughafen St.Gallen-Altenrhein

Live-Bilder und Zeitraffer LSZR / ACH.

 

Live aus Altenrhein
LIVE
LSZR 220450Z AUTO 21002KT CAVOK M01/M02 Q1030
Zeitraffer heute
2019-03-22 00:14:41
LSZR 212250Z AUTO VRB02KT CAVOK 01/M01 Q1030
Zeitraffer gestern
2019-03-21 00:14:24
LSZR 202250Z AUTO VRB01KT CAVOK 01/M01 Q1033
Zeitraffer vor 3 Tagen
2019-03-19 00:14:49
LSZR 182250Z AUTO VRB01KT 9999 FEW060 01/01 Q1024